Kirby Moran — WDH9735 — position and weather

sailwx.info

Track history (hours):
 
Tides and Currents Weather Stations Pressure Air Temp Water Temp Dewpoint Dewpoint Depression Visibility Wind Speed Wind Dir Waves Ship Positions

Kirby Moran

Owner: Moran Towing Corporation, New Canaan, CT. More information available from US FCC via Universal Licensing System and Coast Guard Vessel Documentation Center.

Last reported at 2017-Nov-20 00:29 UTC. Time now 2017-Nov-21 19:31 UTC.
Position N 40°38' W 074°08'.

Length 28 m; draft 5.2 m.

Type: Tug. MMSI: 367671080.

Date/timePositionNaut miles runAvg speedWind from/ knotsBaromVisibWave heightAir tempDewpointWater temp
2017-Nov-20 00:29N 40°38' W 074°08'0 0.0
2017-Nov-20 00:00N 40°38' W 074°08'0 0.0
2017-Nov-19 23:30N 40°38' W 074°08'0 0.0
2017-Nov-19 23:00N 40°38' W 074°08'0 0.0
2017-Nov-19 22:30N 40°38' W 074°08'0 0.0
2017-Nov-19 21:59N 40°38' W 074°08'0 0.0
2017-Nov-19 21:30N 40°38' W 074°08'0 0.0
2017-Nov-19 20:41N 40°39' W 074°08'2 8.9
2017-Nov-19 20:29N 40°39' W 074°10'3 7.2
2017-Nov-19 20:00N 40°36' W 074°12'1 1.5
2017-Nov-19 19:30N 40°35' W 074°13'1 2.9
2017-Nov-19 19:00N 40°36' W 074°12'4 7.8
2017-Nov-19 18:30N 40°39' W 074°08'0 0.2
2017-Nov-19 18:00N 40°38' W 074°08'0 0.0
2017-Nov-19 17:30N 40°38' W 074°08'0 0.0
2017-Nov-19 16:59N 40°38' W 074°08'0 0.0
2017-Nov-19 16:30N 40°38' W 074°08'0 0.0
2017-Nov-19 15:58N 40°38' W 074°08'0 0.0
2017-Nov-19 15:30N 40°38' W 074°08'0 0.0
2017-Nov-19 15:00N 40°38' W 074°08'4 7.1
2017-Nov-19 14:30N 40°37' W 074°12'2 1.7
2017-Nov-19 13:22N 40°35' W 074°12'1 3.4
2017-Nov-19 12:56N 40°37' W 074°12'2 4.8
2017-Nov-19 12:29N 40°39' W 074°11'3 6.1
2017-Nov-19 11:58N 40°39' W 074°07'3 5.8
2017-Nov-19 11:31N 40°38' W 074°03'3 2.6
2017-Nov-19 10:11N 40°38' W 074°08'0 0.0
2017-Nov-19 06:41N 40°38' W 074°08'0 0.0
2017-Nov-19 04:11N 40°38' W 074°08'0 0.0
2017-Nov-18 22:57N 40°38' W 074°08'0 0.0
2017-Nov-18 20:38N 40°38' W 074°08'0 0.5
2017-Nov-18 20:30N 40°39' W 074°08'0 0.1
2017-Nov-18 19:30N 40°38' W 074°08'0 0.0
2017-Nov-18 15:26N 40°38' W 074°08'0 0.0
2017-Nov-18 14:57N 40°38' W 074°08'0 0.0
2017-Nov-18 14:27N 40°38' W 074°08'0 0.0
2017-Nov-18 13:55N 40°38' W 074°08'0 0.5
2017-Nov-18 13:30N 40°39' W 074°08'3 6.3
2017-Nov-18 13:00N 40°38' W 074°12'2 3.5
2017-Nov-18 12:30N 40°37' W 074°12'0 0.0
2017-Nov-18 12:00N 40°37' W 074°12'1 1.9
2017-Nov-18 11:30N 40°38' W 074°12'4 8.2
2017-Nov-18 11:00N 40°39' W 074°07'1 2.8
2017-Nov-18 10:30N 40°39' W 074°09'2 3.6
2017-Nov-18 10:00N 40°40' W 074°08'1 1.4
2017-Nov-18 09:30N 40°41' W 074°09'0 0.4
2017-Nov-18 09:00N 40°41' W 074°09'2 5.0
2017-Nov-18 08:30N 40°39' W 074°09'1 1.5
2017-Nov-18 08:00N 40°38' W 074°08'0 0.0
2017-Nov-18 07:30N 40°38' W 074°08'0 0.0
2017-Nov-18 07:00N 40°38' W 074°08'0 0.0
2017-Nov-18 06:30N 40°39' W 074°08'0 0.0
2017-Nov-18 06:00N 40°38' W 074°08'0 0.0
2017-Nov-18 05:29N 40°38' W 074°08'0 0.0
2017-Nov-18 05:00N 40°38' W 074°08'0 0.0
2017-Nov-18 04:30N 40°38' W 074°08'0 0.0
2017-Nov-18 03:58N 40°39' W 074°08'0 0.0
2017-Nov-18 03:18N 40°38' W 074°08'0 0.0
2017-Nov-18 03:00N 40°38' W 074°08'3 5.3
2017-Nov-18 02:30N 40°41' W 074°08'0 0.6
2017-Nov-18 02:00N 40°41' W 074°08'2 3.3
2017-Nov-18 01:30N 40°40' W 074°09'2 3.3
2017-Nov-18 01:00N 40°39' W 074°07'3 6.0
2017-Nov-18 00:30N 40°38' W 074°03'3 5.6
2017-Nov-18 00:00N 40°39' W 074°07'1 1.9
2017-Nov-17 23:30N 40°38' W 074°08'3 5.5
2017-Nov-17 22:59N 40°38' W 074°12'2 0.7
2017-Nov-17 19:41N 40°36' W 074°12'210.5
2017-Nov-17 19:30N 40°38' W 074°12'3 6.1
2017-Nov-17 19:00N 40°38' W 074°08'0 0.0
2017-Nov-17 18:29N 40°38' W 074°08'0 0.0
2017-Nov-17 18:00N 40°38' W 074°08'0 0.0
2017-Nov-17 17:30N 40°38' W 074°08'0 0.0
2017-Nov-17 17:00N 40°38' W 074°08'0 0.0
2017-Nov-17 16:30N 40°38' W 074°08'0 0.0
2017-Nov-17 16:00N 40°38' W 074°08'0 0.0
2017-Nov-17 15:30N 40°38' W 074°08'0 0.0
2017-Nov-17 14:59N 40°38' W 074°08'0 0.0
2017-Nov-17 14:30N 40°38' W 074°08'0 0.0
2017-Nov-17 14:00N 40°38' W 074°08'0 0.0
2017-Nov-17 13:30N 40°38' W 074°08'0 0.0
2017-Nov-17 13:00N 40°38' W 074°08'0 0.0
2017-Nov-17 12:30N 40°38' W 074°08'2 4.1
2017-Nov-17 12:00N 40°39' W 074°05'2 3.1
2017-Nov-17 11:30N 40°39' W 074°07'1 2.7
2017-Nov-17 11:00N 40°39' W 074°09'1 2.4
2017-Nov-17 10:30N 40°41' W 074°09'0 0.9
2017-Nov-17 10:00N 40°41' W 074°09'2 5.0
2017-Nov-17 09:30N 40°39' W 074°08'0 0.4
2017-Nov-17 09:00N 40°38' W 074°08'0 0.0
2017-Nov-17 08:30N 40°38' W 074°08'0 0.0
2017-Nov-17 08:00N 40°38' W 074°08'0 0.0
2017-Nov-17 07:30N 40°38' W 074°08'0 0.0
2017-Nov-17 07:00N 40°38' W 074°08'0 0.0
2017-Nov-17 06:27N 40°38' W 074°08'0 0.0
2017-Nov-17 06:00N 40°38' W 074°08'0 0.0
2017-Nov-17 05:26N 40°38' W 074°08'0 0.0
2017-Nov-17 04:56N 40°38' W 074°08'2 5.3
2017-Nov-17 04:30N 40°41' W 074°08'1 1.3
2017-Nov-17 04:01N 40°41' W 074°08'0 0.5
2017-Nov-17 03:30N 40°41' W 074°08'3 5.3
2017-Nov-17 03:00N 40°39' W 074°08'3 7.0
2017-Nov-17 02:30N 40°39' W 074°04'2 3.8
2017-Nov-17 02:01N 40°39' W 074°06'1 2.1
2017-Nov-17 01:24N 40°39' W 074°08'3 8.2
2017-Nov-17 01:00N 40°38' W 074°12'0 0.1
2017-Nov-17 00:30N 40°38' W 074°12'0 0.0
2017-Nov-17 00:00N 40°38' W 074°12'0 0.2
2017-Nov-16 23:29N 40°38' W 074°12'3 3.9
2017-Nov-16 22:49N 40°39' W 074°09'3 6.7
2017-Nov-16 22:26N 40°39' W 074°05'3 6.9
2017-Nov-16 21:59N 40°37' W 074°03'1 2.1
2017-Nov-16 21:30N 40°36' W 074°02'4 7.9
2017-Nov-16 21:00N 40°39' W 074°05'2 4.6
2017-Nov-16 20:30N 40°38' W 074°08'0 0.0
2017-Nov-16 20:00N 40°38' W 074°08'0 0.0
2017-Nov-16 19:30N 40°38' W 074°08'0 0.0
2017-Nov-16 18:59N 40°38' W 074°08'0 0.0
2017-Nov-16 18:30N 40°38' W 074°08'0 0.0
2017-Nov-16 18:00N 40°38' W 074°08'0 0.0
2017-Nov-16 17:30N 40°38' W 074°08'0 0.0
2017-Nov-16 17:00N 40°38' W 074°08'0 0.0
2017-Nov-16 16:30N 40°38' W 074°08'0 0.0
2017-Nov-16 15:55N 40°38' W 074°08'0 0.0
2017-Nov-16 15:27N 40°38' W 074°08'0 0.1
2017-Nov-16 14:59N 40°38' W 074°08'0 0.0
2017-Nov-16 14:29N 40°38' W 074°08'0 0.1
2017-Nov-16 13:43N 40°38' W 074°08'210.7
2017-Nov-16 13:30N 40°39' W 074°11'2 1.0
2017-Nov-16 11:30N 40°37' W 074°12'3 5.4
2017-Nov-16 11:00N 40°39' W 074°09'3 5.2
2017-Nov-16 10:30N 40°39' W 074°06'2 4.3
2017-Nov-16 10:00N 40°38' W 074°04'0 0.2
2017-Nov-16 09:30N 40°38' W 074°04'3 5.5
2017-Nov-16 09:00N 40°39' W 074°07'1 1.1
2017-Nov-16 08:23N 40°38' W 074°08'0 0.0
2017-Nov-16 05:50N 40°38' W 074°08'0 0.0
2017-Nov-16 05:09N 40°38' W 074°08'0 0.0
2017-Nov-16 05:00N 40°38' W 074°08'0 0.0
2017-Nov-16 04:30N 40°38' W 074°08'0 0.6
2017-Nov-16 04:00N 40°39' W 074°07'3 5.5
2017-Nov-16 03:30N 40°38' W 074°04'1 1.6
2017-Nov-16 03:00N 40°39' W 074°04'1 2.0
2017-Nov-16 02:22N 40°39' W 074°06'1 2.9
2017-Nov-16 02:00N 40°39' W 074°07'0 0.7
2017-Nov-16 01:26N 40°38' W 074°08'0 0.0
2017-Nov-16 00:26N 40°38' W 074°08'1 2.4
2017-Nov-16 00:00N 40°39' W 074°09'2 4.5
2017-Nov-15 23:30N 40°41' W 074°08'1 1.6
2017-Nov-15 22:59N 40°42' W 074°08'1 2.1
2017-Nov-15 22:30N 40°41' W 074°08'2 3.7
2017-Nov-15 21:52N 40°38' W 074°08'0 0.0
2017-Nov-15 15:05N 40°38' W 074°08'0 0.1
2017-Nov-15 15:00N 40°38' W 074°08'0 0.1
2017-Nov-15 14:22N 40°38' W 074°08'0 0.0
2017-Nov-15 13:21N 40°38' W 074°08'0 0.0
2017-Nov-15 13:00N 40°38' W 074°08'0 0.0
2017-Nov-15 12:26N 40°38' W 074°08'0 0.0
2017-Nov-15 11:59N 40°38' W 074°08'2 4.1
2017-Nov-15 11:30N 40°39' W 074°05'0 0.0
2017-Nov-15 11:00N 40°39' W 074°05'0 0.3
2017-Nov-15 10:30N 40°39' W 074°05'2 3.9
2017-Nov-15 10:00N 40°38' W 074°03'1 1.8
2017-Nov-15 09:30N 40°37' W 074°03'2 4.9
2017-Nov-15 09:00N 40°39' W 074°05'2 4.6
2017-Nov-15 08:30N 40°38' W 074°08'0 0.0
2017-Nov-15 08:00N 40°38' W 074°08'0 0.0
2017-Nov-15 07:30N 40°38' W 074°08'0 0.0
2017-Nov-15 07:00N 40°38' W 074°08'0 0.0
2017-Nov-15 06:30N 40°38' W 074°08'0 0.0
2017-Nov-15 06:00N 40°38' W 074°08'0 0.0
2017-Nov-15 05:30N 40°38' W 074°08'0 0.0
2017-Nov-15 05:00N 40°38' W 074°08'0 0.0
2017-Nov-15 04:30N 40°38' W 074°08'0 0.0
2017-Nov-15 04:00N 40°38' W 074°08'0 0.0
2017-Nov-15 03:30N 40°38' W 074°08'0 0.0
2017-Nov-15 03:00N 40°38' W 074°08'0 0.0
2017-Nov-15 02:30N 40°38' W 074°08'0 0.0
2017-Nov-15 02:00N 40°38' W 074°08'0 0.0
2017-Nov-15 01:30N 40°38' W 074°08'0 0.0
2017-Nov-15 01:00N 40°38' W 074°08'0 0.8
2017-Nov-15 00:26N 40°39' W 074°08'1 2.9
2017-Nov-15 00:00N 40°40' W 074°08'0 0.5
2017-Nov-14 23:30N 40°40' W 074°09'0 0.8
2017-Nov-14 23:00N 40°40' W 074°09'0 0.4
2017-Nov-14 22:30N 40°40' W 074°09'1 1.3
2017-Nov-14 22:00N 40°39' W 074°09'1 2.2
2017-Nov-14 21:29N 40°38' W 074°08'0 0.0
2017-Nov-14 21:00N 40°38' W 074°08'0 0.0
2017-Nov-14 20:30N 40°38' W 074°08'0 0.0
2017-Nov-14 19:59N 40°38' W 074°08'0 0.0
2017-Nov-14 19:30N 40°38' W 074°08'0 0.0
2017-Nov-14 19:00N 40°38' W 074°08'0 0.0
2017-Nov-14 18:30N 40°38' W 074°08'0 0.0
2017-Nov-14 17:59N 40°38' W 074°08'0 0.0
2017-Nov-14 17:30N 40°38' W 074°08'0 0.0
2017-Nov-14 17:00N 40°38' W 074°08'0 0.0
2017-Nov-14 16:30N 40°38' W 074°08'0 0.0
2017-Nov-14 16:00N 40°38' W 074°08'0 0.0
2017-Nov-14 15:29N 40°38' W 074°08'0 0.0
2017-Nov-14 14:28N 40°38' W 074°08'1 2.2
2017-Nov-14 14:00N 40°39' W 074°07'0 0.0
2017-Nov-14 13:30N 40°39' W 074°07'0 0.0
2017-Nov-14 12:57N 40°39' W 074°07'0 0.0
2017-Nov-14 12:30N 40°39' W 074°07'0 0.0
2017-Nov-14 12:00N 40°39' W 074°07'1 2.0
2017-Nov-14 11:30N 40°38' W 074°08'0 0.0
2017-Nov-14 11:00N 40°38' W 074°08'0 0.0
2017-Nov-14 10:30N 40°38' W 074°08'0 0.0
2017-Nov-14 10:00N 40°38' W 074°08'0 0.0
2017-Nov-14 09:30N 40°38' W 074°08'0 0.0
2017-Nov-14 08:59N 40°38' W 074°08'0 0.0
2017-Nov-14 08:20N 40°38' W 074°08'0 0.0
2017-Nov-14 07:59N 40°38' W 074°08'0 0.0
2017-Nov-14 07:28N 40°38' W 074°08'0 0.0
2017-Nov-14 06:58N 40°38' W 074°08'0 0.0
2017-Nov-14 06:25N 40°38' W 074°08'0 0.0
2017-Nov-14 06:00N 40°38' W 074°08'0 0.0
2017-Nov-14 05:24N 40°38' W 074°08'0 0.0
2017-Nov-14 04:43N 40°38' W 074°08'0 0.0
2017-Nov-14 04:29N 40°38' W 074°08'0 0.0
2017-Nov-14 03:59N 40°38' W 074°08'0 0.0
2017-Nov-14 03:29N 40°38' W 074°08'0 0.0
2017-Nov-14 02:58N 40°38' W 074°08'0 0.0
2017-Nov-14 02:30N 40°38' W 074°08'0 0.0
2017-Nov-14 01:57N 40°38' W 074°08'1 2.4
2017-Nov-14 01:30N 40°39' W 074°09'1 1.3
2017-Nov-14 01:00N 40°40' W 074°09'0 0.4
2017-Nov-14 00:30N 40°40' W 074°09'0 0.0
2017-Nov-14 00:00N 40°40' W 074°09'0 0.0
2017-Nov-13 23:30N 40°40' W 074°09'0 0.0
2017-Nov-13 23:00N 40°40' W 074°09'0 0.0
2017-Nov-13 22:30N 40°40' W 074°09'0 0.0
2017-Nov-13 22:00N 40°40' W 074°09'2 0.1
2017-Nov-13 02:00N 40°39' W 074°07'1 1.5
2017-Nov-13 01:29N 40°39' W 074°08'1 3.0
2017-Nov-13 01:00N 40°40' W 074°08'2 3.8
2017-Nov-13 00:30N 40°42' W 074°09'0 0.2
2017-Nov-13 00:00N 40°42' W 074°09'0 0.0
2017-Nov-12 23:30N 40°42' W 074°09'0 0.0
2017-Nov-12 23:00N 40°42' W 074°09'0 0.2
2017-Nov-12 22:30N 40°42' W 074°08'3 6.3
2017-Nov-12 22:00N 40°39' W 074°08'2 3.8
2017-Nov-12 21:31N 40°40' W 074°08'1 1.7
2017-Nov-12 21:00N 40°41' W 074°09'2 3.7
2017-Nov-12 20:30N 40°39' W 074°09'1 1.9
2017-Nov-12 19:57N 40°38' W 074°08'0 0.0
2017-Nov-12 19:30N 40°38' W 074°08'0 0.0
2017-Nov-12 19:00N 40°38' W 074°08'0 0.0
2017-Nov-12 18:30N 40°38' W 074°08'0 0.0
2017-Nov-12 18:00N 40°38' W 074°08'0 0.0
2017-Nov-12 17:30N 40°38' W 074°08'0 0.0
2017-Nov-12 17:00N 40°38' W 074°08'0 0.0
2017-Nov-12 16:30N 40°38' W 074°08'0 0.0
2017-Nov-12 16:00N 40°38' W 074°08'0 0.0
2017-Nov-12 15:30N 40°38' W 074°08'0 0.0
2017-Nov-12 15:00N 40°38' W 074°08'0 0.0
2017-Nov-12 14:28N 40°38' W 074°08'0 0.0
2017-Nov-12 14:00N 40°38' W 074°08'0 0.0
2017-Nov-12 13:30N 40°38' W 074°08'0 0.0
2017-Nov-12 12:59N 40°38' W 074°08'0 0.0
2017-Nov-12 12:30N 40°38' W 074°08'0 0.0
2017-Nov-12 12:00N 40°38' W 074°08'0 0.0
2017-Nov-12 11:30N 40°38' W 074°08'0 0.0
2017-Nov-12 11:00N 40°38' W 074°08'0 0.0
2017-Nov-12 10:29N 40°38' W 074°08'0 0.0
2017-Nov-12 10:00N 40°38' W 074°08'0 0.0
2017-Nov-12 09:30N 40°38' W 074°08'0 0.0
2017-Nov-12 09:00N 40°38' W 074°08'0 0.0
2017-Nov-12 08:29N 40°38' W 074°08'0 0.0
2017-Nov-12 08:00N 40°38' W 074°08'0 0.0
2017-Nov-12 07:30N 40°38' W 074°08'0 0.0
2017-Nov-12 07:00N 40°38' W 074°08'0 0.0
2017-Nov-12 06:29N 40°38' W 074°08'0 0.0
2017-Nov-12 06:00N 40°38' W 074°08'0 0.0
2017-Nov-12 05:30N 40°38' W 074°08'0 0.0
2017-Nov-12 05:00N 40°38' W 074°08'0 0.0
2017-Nov-12 04:29N 40°38' W 074°08'0 0.0
2017-Nov-12 04:00N 40°38' W 074°08'0 0.0
2017-Nov-12 03:30N 40°38' W 074°08'0 0.0
2017-Nov-12 03:00N 40°38' W 074°08'0 0.0
2017-Nov-12 02:30N 40°38' W 074°08'0 0.0
2017-Nov-12 02:00N 40°38' W 074°08'0 0.0
2017-Nov-12 01:30N 40°38' W 074°08'0 0.0
2017-Nov-12 01:00N 40°38' W 074°08'0 0.0
2017-Nov-12 00:30N 40°38' W 074°08'0 0.0
2017-Nov-12 00:00N 40°38' W 074°08'0 0.0
2017-Nov-11 23:30N 40°38' W 074°08'0 0.0
2017-Nov-11 23:00N 40°38' W 074°08'0 0.0
2017-Nov-11 22:29N 40°38' W 074°08'0 0.0
2017-Nov-11 22:00N 40°38' W 074°08'0 0.0
2017-Nov-11 21:29N 40°38' W 074°08'0 0.8
2017-Nov-11 21:00N 40°39' W 074°08'2 4.5
2017-Nov-11 20:30N 40°41' W 074°09'0 0.4
2017-Nov-11 20:00N 40°41' W 074°08'3 5.1
2017-Nov-11 19:30N 40°38' W 074°08'0 0.0
2017-Nov-11 18:08N 40°38' W 074°08'0 0.0
2017-Nov-11 18:00N 40°38' W 074°08'0 0.0
2017-Nov-11 17:14N 40°38' W 074°08'0 0.0
2017-Nov-11 16:30N 40°38' W 074°08'0 0.0
2017-Nov-11 15:24N 40°38' W 074°08'0 0.0
2017-Nov-11 14:59N 40°38' W 074°08'0 0.0
2017-Nov-11 14:22N 40°38' W 074°08'0 0.0
2017-Nov-11 14:00N 40°38' W 074°08'0 0.0
2017-Nov-11 13:29N 40°38' W 074°08'0 0.0
2017-Nov-11 13:00N 40°38' W 074°08'0 0.0
2017-Nov-11 12:30N 40°38' W 074°08'0 0.0
2017-Nov-11 11:59N 40°38' W 074°08'0 0.0
2017-Nov-11 11:27N 40°38' W 074°08'0 0.0
2017-Nov-11 10:57N 40°38' W 074°08'0 0.0
2017-Nov-11 10:30N 40°38' W 074°08'0 0.0
2017-Nov-11 10:00N 40°38' W 074°08'0 0.0
2017-Nov-11 09:30N 40°38' W 074°08'0 0.0
2017-Nov-11 07:33N 40°38' W 074°08'0 0.1
2017-Nov-11 07:29N 40°39' W 074°08'0 0.0
2017-Nov-11 06:50N 40°39' W 074°08'0 0.0
2017-Nov-11 06:27N 40°39' W 074°08'0 0.0
2017-Nov-11 06:00N 40°39' W 074°08'2 3.8
2017-Nov-11 05:30N 40°39' W 074°05'2 3.5
2017-Nov-11 05:00N 40°39' W 074°08'1 2.8
2017-Nov-11 04:30N 40°40' W 074°08'0 0.6
2017-Nov-11 04:00N 40°40' W 074°09'0 0.1
2017-Nov-11 03:30N 40°40' W 074°09'0 0.0
2017-Nov-11 03:00N 40°40' W 074°09'1 1.9
2017-Nov-11 02:14N 40°38' W 074°08'0 0.0
2017-Nov-11 02:00N 40°38' W 074°08'0 0.0
2017-Nov-11 01:30N 40°38' W 074°08'0 0.0
2017-Nov-11 01:00N 40°38' W 074°08'2 3.4
2017-Nov-11 00:30N 40°39' W 074°06'2 4.9
2017-Nov-11 00:00N 40°39' W 074°09'2 4.4
2017-Nov-10 23:29N 40°42' W 074°08'0 0.4
2017-Nov-10 22:59N 40°42' W 074°08'0 0.1
2017-Nov-10 22:30N 40°42' W 074°08'0 0.0
2017-Nov-10 22:00N 40°42' W 074°08'3 6.0
2017-Nov-10 21:30N 40°39' W 074°10'4 8.2
2017-Nov-10 20:58N 40°35' W 074°12'0 0.0
2017-Nov-10 19:57N 40°35' W 074°13'3 7.1
2017-Nov-10 19:30N 40°38' W 074°12'3 1.0
2017-Nov-10 16:23N 40°38' W 074°08'0 0.0
2017-Nov-10 15:36N 40°38' W 074°08'0 0.0
2017-Nov-10 15:17N 40°38' W 074°08'0 0.0
2017-Nov-10 15:00N 40°38' W 074°08'0 0.0
2017-Nov-10 14:30N 40°38' W 074°08'0 0.0
2017-Nov-10 14:00N 40°38' W 074°08'0 0.0
2017-Nov-10 12:08N 40°38' W 074°08'0 0.0
2017-Nov-10 11:43N 40°38' W 074°08'1 3.5
2017-Nov-10 11:25N 40°39' W 074°09'1 3.1
2017-Nov-10 11:00N 40°40' W 074°08'1 2.1
2017-Nov-10 10:30N 40°41' W 074°09'0 0.1
2017-Nov-10 10:00N 40°41' W 074°09'3 5.2
2017-Nov-10 09:30N 40°39' W 074°08'0 0.4
2017-Nov-10 08:59N 40°38' W 074°08'0 0.0
2017-Nov-10 08:30N 40°38' W 074°08'0 0.0
2017-Nov-10 08:00N 40°38' W 074°08'0 0.0
2017-Nov-10 07:30N 40°38' W 074°08'0 0.0
2017-Nov-10 06:57N 40°38' W 074°08'0 0.0
2017-Nov-10 06:28N 40°38' W 074°08'0 0.0
2017-Nov-10 05:59N 40°38' W 074°08'0 0.0
2017-Nov-10 05:30N 40°38' W 074°08'0 0.0
2017-Nov-10 05:00N 40°38' W 074°08'0 0.0
2017-Nov-10 04:30N 40°38' W 074°08'0 0.0
2017-Nov-10 04:00N 40°38' W 074°08'0 0.0
2017-Nov-10 03:30N 40°38' W 074°08'0 0.0
2017-Nov-10 03:00N 40°38' W 074°08'0 0.0
2017-Nov-10 02:30N 40°38' W 074°08'0 0.0
2017-Nov-10 02:00N 40°38' W 074°08'0 0.0
2017-Nov-10 01:30N 40°38' W 074°08'0 0.0
2017-Nov-10 00:59N 40°38' W 074°08'0 0.0
2017-Nov-10 00:29N 40°38' W 074°08'  
Track history (hours):
 
Tides and Currents Weather Stations Pressure Air Temp Water Temp Dewpoint Dewpoint Depression Visibility Wind Speed Wind Dir Waves Ship Positions

Kirby Moran

Owner: Moran Towing Corporation, New Canaan, CT. More information available from US FCC via Universal Licensing System and Coast Guard Vessel Documentation Center.

Last reported at 2017-Nov-20 00:29 UTC. Time now 2017-Nov-21 19:31 UTC.
Position N 40°38' W 074°08'.

Length 28 m; draft 5.2 m.

Type: Tug. MMSI: 367671080.

Date/timePositionNaut miles runAvg speedWind from/ knotsBaromVisibWave heightAir tempDewpointWater temp
2017-Nov-20 00:29N 40°38' W 074°08'0 0.0
2017-Nov-20 00:00N 40°38' W 074°08'0 0.0
2017-Nov-19 23:30N 40°38' W 074°08'0 0.0
2017-Nov-19 23:00N 40°38' W 074°08'0 0.0
2017-Nov-19 22:30N 40°38' W 074°08'0 0.0
2017-Nov-19 21:59N 40°38' W 074°08'0 0.0
2017-Nov-19 21:30N 40°38' W 074°08'0 0.0
2017-Nov-19 20:41N 40°39' W 074°08'2 8.9
2017-Nov-19 20:29N 40°39' W 074°10'3 7.2
2017-Nov-19 20:00N 40°36' W 074°12'1 1.5
2017-Nov-19 19:30N 40°35' W 074°13'1 2.9
2017-Nov-19 19:00N 40°36' W 074°12'4 7.8
2017-Nov-19 18:30N 40°39' W 074°08'0 0.2
2017-Nov-19 18:00N 40°38' W 074°08'0 0.0
2017-Nov-19 17:30N 40°38' W 074°08'0 0.0
2017-Nov-19 16:59N 40°38' W 074°08'0 0.0
2017-Nov-19 16:30N 40°38' W 074°08'0 0.0
2017-Nov-19 15:58N 40°38' W 074°08'0 0.0
2017-Nov-19 15:30N 40°38' W 074°08'0 0.0
2017-Nov-19 15:00N 40°38' W 074°08'4 7.1
2017-Nov-19 14:30N 40°37' W 074°12'2 1.7
2017-Nov-19 13:22N 40°35' W 074°12'1 3.4
2017-Nov-19 12:56N 40°37' W 074°12'2 4.8
2017-Nov-19 12:29N 40°39' W 074°11'3 6.1
2017-Nov-19 11:58N 40°39' W 074°07'3 5.8
2017-Nov-19 11:31N 40°38' W 074°03'3 2.6
2017-Nov-19 10:11N 40°38' W 074°08'0 0.0
2017-Nov-19 06:41N 40°38' W 074°08'0 0.0
2017-Nov-19 04:11N 40°38' W 074°08'0 0.0
2017-Nov-18 22:57N 40°38' W 074°08'0 0.0
2017-Nov-18 20:38N 40°38' W 074°08'0 0.5
2017-Nov-18 20:30N 40°39' W 074°08'0 0.1
2017-Nov-18 19:30N 40°38' W 074°08'0 0.0
2017-Nov-18 15:26N 40°38' W 074°08'0 0.0
2017-Nov-18 14:57N 40°38' W 074°08'0 0.0
2017-Nov-18 14:27N 40°38' W 074°08'0 0.0
2017-Nov-18 13:55N 40°38' W 074°08'0 0.5
2017-Nov-18 13:30N 40°39' W 074°08'3 6.3
2017-Nov-18 13:00N 40°38' W 074°12'2 3.5
2017-Nov-18 12:30N 40°37' W 074°12'0 0.0
2017-Nov-18 12:00N 40°37' W 074°12'1 1.9
2017-Nov-18 11:30N 40°38' W 074°12'4 8.2
2017-Nov-18 11:00N 40°39' W 074°07'1 2.8
2017-Nov-18 10:30N 40°39' W 074°09'2 3.6
2017-Nov-18 10:00N 40°40' W 074°08'1 1.4
2017-Nov-18 09:30N 40°41' W 074°09'0 0.4
2017-Nov-18 09:00N 40°41' W 074°09'2 5.0
2017-Nov-18 08:30N 40°39' W 074°09'1 1.5
2017-Nov-18 08:00N 40°38' W 074°08'0 0.0
2017-Nov-18 07:30N 40°38' W 074°08'0 0.0
2017-Nov-18 07:00N 40°38' W 074°08'0 0.0
2017-Nov-18 06:30N 40°39' W 074°08'0 0.0
2017-Nov-18 06:00N 40°38' W 074°08'0 0.0
2017-Nov-18 05:29N 40°38' W 074°08'0 0.0
2017-Nov-18 05:00N 40°38' W 074°08'0 0.0
2017-Nov-18 04:30N 40°38' W 074°08'0 0.0
2017-Nov-18 03:58N 40°39' W 074°08'0 0.0
2017-Nov-18 03:18N 40°38' W 074°08'0 0.0
2017-Nov-18 03:00N 40°38' W 074°08'3 5.3
2017-Nov-18 02:30N 40°41' W 074°08'0 0.6
2017-Nov-18 02:00N 40°41' W 074°08'2 3.3
2017-Nov-18 01:30N 40°40' W 074°09'2 3.3
2017-Nov-18 01:00N 40°39' W 074°07'3 6.0
2017-Nov-18 00:30N 40°38' W 074°03'3 5.6
2017-Nov-18 00:00N 40°39' W 074°07'1 1.9
2017-Nov-17 23:30N 40°38' W 074°08'3 5.5
2017-Nov-17 22:59N 40°38' W 074°12'2 0.7
2017-Nov-17 19:41N 40°36' W 074°12'210.5
2017-Nov-17 19:30N 40°38' W 074°12'3 6.1
2017-Nov-17 19:00N 40°38' W 074°08'0 0.0
2017-Nov-17 18:29N 40°38' W 074°08'0 0.0
2017-Nov-17 18:00N 40°38' W 074°08'0 0.0
2017-Nov-17 17:30N 40°38' W 074°08'0 0.0
2017-Nov-17 17:00N 40°38' W 074°08'0 0.0
2017-Nov-17 16:30N 40°38' W 074°08'0 0.0
2017-Nov-17 16:00N 40°38' W 074°08'0 0.0
2017-Nov-17 15:30N 40°38' W 074°08'0 0.0
2017-Nov-17 14:59N 40°38' W 074°08'0 0.0
2017-Nov-17 14:30N 40°38' W 074°08'0 0.0
2017-Nov-17 14:00N 40°38' W 074°08'0 0.0
2017-Nov-17 13:30N 40°38' W 074°08'0 0.0
2017-Nov-17 13:00N 40°38' W 074°08'0 0.0
2017-Nov-17 12:30N 40°38' W 074°08'2 4.1
2017-Nov-17 12:00N 40°39' W 074°05'2 3.1
2017-Nov-17 11:30N 40°39' W 074°07'1 2.7
2017-Nov-17 11:00N 40°39' W 074°09'1 2.4
2017-Nov-17 10:30N 40°41' W 074°09'0 0.9
2017-Nov-17 10:00N 40°41' W 074°09'2 5.0
2017-Nov-17 09:30N 40°39' W 074°08'0 0.4
2017-Nov-17 09:00N 40°38' W 074°08'0 0.0
2017-Nov-17 08:30N 40°38' W 074°08'0 0.0
2017-Nov-17 08:00N 40°38' W 074°08'0 0.0
2017-Nov-17 07:30N 40°38' W 074°08'0 0.0
2017-Nov-17 07:00N 40°38' W 074°08'0 0.0
2017-Nov-17 06:27N 40°38' W 074°08'0 0.0
2017-Nov-17 06:00N 40°38' W 074°08'0 0.0
2017-Nov-17 05:26N 40°38' W 074°08'0 0.0
2017-Nov-17 04:56N 40°38' W 074°08'2 5.3
2017-Nov-17 04:30N 40°41' W 074°08'1 1.3
2017-Nov-17 04:01N 40°41' W 074°08'0 0.5
2017-Nov-17 03:30N 40°41' W 074°08'3 5.3
2017-Nov-17 03:00N 40°39' W 074°08'3 7.0
2017-Nov-17 02:30N 40°39' W 074°04'2 3.8
2017-Nov-17 02:01N 40°39' W 074°06'1 2.1
2017-Nov-17 01:24N 40°39' W 074°08'3 8.2
2017-Nov-17 01:00N 40°38' W 074°12'0 0.1
2017-Nov-17 00:30N 40°38' W 074°12'0 0.0
2017-Nov-17 00:00N 40°38' W 074°12'0 0.2
2017-Nov-16 23:29N 40°38' W 074°12'3 3.9
2017-Nov-16 22:49N 40°39' W 074°09'3 6.7
2017-Nov-16 22:26N 40°39' W 074°05'3 6.9
2017-Nov-16 21:59N 40°37' W 074°03'1 2.1
2017-Nov-16 21:30N 40°36' W 074°02'4 7.9
2017-Nov-16 21:00N 40°39' W 074°05'2 4.6
2017-Nov-16 20:30N 40°38' W 074°08'0 0.0
2017-Nov-16 20:00N 40°38' W 074°08'0 0.0
2017-Nov-16 19:30N 40°38' W 074°08'0 0.0
2017-Nov-16 18:59N 40°38' W 074°08'0 0.0
2017-Nov-16 18:30N 40°38' W 074°08'0 0.0
2017-Nov-16 18:00N 40°38' W 074°08'0 0.0
2017-Nov-16 17:30N 40°38' W 074°08'0 0.0
2017-Nov-16 17:00N 40°38' W 074°08'0 0.0
2017-Nov-16 16:30N 40°38' W 074°08'0 0.0
2017-Nov-16 15:55N 40°38' W 074°08'0 0.0
2017-Nov-16 15:27N 40°38' W 074°08'0 0.1
2017-Nov-16 14:59N 40°38' W 074°08'0 0.0
2017-Nov-16 14:29N 40°38' W 074°08'0 0.1
2017-Nov-16 13:43N 40°38' W 074°08'210.7
2017-Nov-16 13:30N 40°39' W 074°11'2 1.0
2017-Nov-16 11:30N 40°37' W 074°12'3 5.4
2017-Nov-16 11:00N 40°39' W 074°09'3 5.2
2017-Nov-16 10:30N 40°39' W 074°06'2 4.3
2017-Nov-16 10:00N 40°38' W 074°04'0 0.2
2017-Nov-16 09:30N 40°38' W 074°04'3 5.5
2017-Nov-16 09:00N 40°39' W 074°07'1 1.1
2017-Nov-16 08:23N 40°38' W 074°08'0 0.0
2017-Nov-16 05:50N 40°38' W 074°08'0 0.0
2017-Nov-16 05:09N 40°38' W 074°08'0 0.0
2017-Nov-16 05:00N 40°38' W 074°08'0 0.0
2017-Nov-16 04:30N 40°38' W 074°08'0 0.6
2017-Nov-16 04:00N 40°39' W 074°07'3 5.5
2017-Nov-16 03:30N 40°38' W 074°04'1 1.6
2017-Nov-16 03:00N 40°39' W 074°04'1 2.0
2017-Nov-16 02:22N 40°39' W 074°06'1 2.9
2017-Nov-16 02:00N 40°39' W 074°07'0 0.7
2017-Nov-16 01:26N 40°38' W 074°08'0 0.0
2017-Nov-16 00:26N 40°38' W 074°08'1 2.4
2017-Nov-16 00:00N 40°39' W 074°09'2 4.5
2017-Nov-15 23:30N 40°41' W 074°08'1 1.6
2017-Nov-15 22:59N 40°42' W 074°08'1 2.1
2017-Nov-15 22:30N 40°41' W 074°08'2 3.7
2017-Nov-15 21:52N 40°38' W 074°08'0 0.0
2017-Nov-15 15:05N 40°38' W 074°08'0 0.1
2017-Nov-15 15:00N 40°38' W 074°08'0 0.1
2017-Nov-15 14:22N 40°38' W 074°08'0 0.0
2017-Nov-15 13:21N 40°38' W 074°08'0 0.0
2017-Nov-15 13:00N 40°38' W 074°08'0 0.0
2017-Nov-15 12:26N 40°38' W 074°08'0 0.0
2017-Nov-15 11:59N 40°38' W 074°08'2 4.1
2017-Nov-15 11:30N 40°39' W 074°05'0 0.0
2017-Nov-15 11:00N 40°39' W 074°05'0 0.3
2017-Nov-15 10:30N 40°39' W 074°05'2 3.9
2017-Nov-15 10:00N 40°38' W 074°03'1 1.8
2017-Nov-15 09:30N 40°37' W 074°03'2 4.9
2017-Nov-15 09:00N 40°39' W 074°05'2 4.6
2017-Nov-15 08:30N 40°38' W 074°08'0 0.0
2017-Nov-15 08:00N 40°38' W 074°08'0 0.0
2017-Nov-15 07:30N 40°38' W 074°08'0 0.0
2017-Nov-15 07:00N 40°38' W 074°08'0 0.0
2017-Nov-15 06:30N 40°38' W 074°08'0 0.0
2017-Nov-15 06:00N 40°38' W 074°08'0 0.0
2017-Nov-15 05:30N 40°38' W 074°08'0 0.0
2017-Nov-15 05:00N 40°38' W 074°08'0 0.0
2017-Nov-15 04:30N 40°38' W 074°08'0 0.0
2017-Nov-15 04:00N 40°38' W 074°08'0 0.0
2017-Nov-15 03:30N 40°38' W 074°08'0 0.0
2017-Nov-15 03:00N 40°38' W 074°08'0 0.0
2017-Nov-15 02:30N 40°38' W 074°08'0 0.0
2017-Nov-15 02:00N 40°38' W 074°08'0 0.0
2017-Nov-15 01:30N 40°38' W 074°08'0 0.0
2017-Nov-15 01:00N 40°38' W 074°08'0 0.8
2017-Nov-15 00:26N 40°39' W 074°08'1 2.9
2017-Nov-15 00:00N 40°40' W 074°08'0 0.5
2017-Nov-14 23:30N 40°40' W 074°09'0 0.8
2017-Nov-14 23:00N 40°40' W 074°09'0 0.4
2017-Nov-14 22:30N 40°40' W 074°09'1 1.3
2017-Nov-14 22:00N 40°39' W 074°09'1 2.2
2017-Nov-14 21:29N 40°38' W 074°08'0 0.0
2017-Nov-14 21:00N 40°38' W 074°08'0 0.0
2017-Nov-14 20:30N 40°38' W 074°08'0 0.0
2017-Nov-14 19:59N 40°38' W 074°08'0 0.0
2017-Nov-14 19:30N 40°38' W 074°08'0 0.0
2017-Nov-14 19:00N 40°38' W 074°08'0 0.0
2017-Nov-14 18:30N 40°38' W 074°08'0 0.0
2017-Nov-14 17:59N 40°38' W 074°08'0 0.0
2017-Nov-14 17:30N 40°38' W 074°08'0 0.0
2017-Nov-14 17:00N 40°38' W 074°08'0 0.0
2017-Nov-14 16:30N 40°38' W 074°08'0 0.0
2017-Nov-14 16:00N 40°38' W 074°08'0 0.0
2017-Nov-14 15:29N 40°38' W 074°08'0 0.0
2017-Nov-14 14:28N 40°38' W 074°08'1 2.2
2017-Nov-14 14:00N 40°39' W 074°07'0 0.0
2017-Nov-14 13:30N 40°39' W 074°07'0 0.0
2017-Nov-14 12:57N 40°39' W 074°07'0 0.0
2017-Nov-14 12:30N 40°39' W 074°07'0 0.0
2017-Nov-14 12:00N 40°39' W 074°07'1 2.0
2017-Nov-14 11:30N 40°38' W 074°08'0 0.0
2017-Nov-14 11:00N 40°38' W 074°08'0 0.0
2017-Nov-14 10:30N 40°38' W 074°08'0 0.0
2017-Nov-14 10:00N 40°38' W 074°08'0 0.0
2017-Nov-14 09:30N 40°38' W 074°08'0 0.0
2017-Nov-14 08:59N 40°38' W 074°08'0 0.0
2017-Nov-14 08:20N 40°38' W 074°08'0 0.0
2017-Nov-14 07:59N 40°38' W 074°08'0 0.0
2017-Nov-14 07:28N 40°38' W 074°08'0 0.0
2017-Nov-14 06:58N 40°38' W 074°08'0 0.0
2017-Nov-14 06:25N 40°38' W 074°08'0 0.0
2017-Nov-14 06:00N 40°38' W 074°08'0 0.0
2017-Nov-14 05:24N 40°38' W 074°08'0 0.0
2017-Nov-14 04:43N 40°38' W 074°08'0 0.0
2017-Nov-14 04:29N 40°38' W 074°08'0 0.0
2017-Nov-14 03:59N 40°38' W 074°08'0 0.0
2017-Nov-14 03:29N 40°38' W 074°08'0 0.0
2017-Nov-14 02:58N 40°38' W 074°08'0 0.0
2017-Nov-14 02:30N 40°38' W 074°08'0 0.0
2017-Nov-14 01:57N 40°38' W 074°08'1 2.4
2017-Nov-14 01:30N 40°39' W 074°09'1 1.3
2017-Nov-14 01:00N 40°40' W 074°09'0 0.4
2017-Nov-14 00:30N 40°40' W 074°09'0 0.0
2017-Nov-14 00:00N 40°40' W 074°09'0 0.0
2017-Nov-13 23:30N 40°40' W 074°09'0 0.0
2017-Nov-13 23:00N 40°40' W 074°09'0 0.0
2017-Nov-13 22:30N 40°40' W 074°09'0 0.0
2017-Nov-13 22:00N 40°40' W 074°09'2 0.1
2017-Nov-13 02:00N 40°39' W 074°07'1 1.5
2017-Nov-13 01:29N 40°39' W 074°08'1 3.0
2017-Nov-13 01:00N 40°40' W 074°08'2 3.8
2017-Nov-13 00:30N 40°42' W 074°09'0 0.2
2017-Nov-13 00:00N 40°42' W 074°09'0 0.0
2017-Nov-12 23:30N 40°42' W 074°09'0 0.0
2017-Nov-12 23:00N 40°42' W 074°09'0 0.2
2017-Nov-12 22:30N 40°42' W 074°08'3 6.3
2017-Nov-12 22:00N 40°39' W 074°08'2 3.8
2017-Nov-12 21:31N 40°40' W 074°08'1 1.7
2017-Nov-12 21:00N 40°41' W 074°09'2 3.7
2017-Nov-12 20:30N 40°39' W 074°09'1 1.9
2017-Nov-12 19:57N 40°38' W 074°08'0 0.0
2017-Nov-12 19:30N 40°38' W 074°08'0 0.0
2017-Nov-12 19:00N 40°38' W 074°08'0 0.0
2017-Nov-12 18:30N 40°38' W 074°08'0 0.0
2017-Nov-12 18:00N 40°38' W 074°08'0 0.0
2017-Nov-12 17:30N 40°38' W 074°08'0 0.0
2017-Nov-12 17:00N 40°38' W 074°08'0 0.0
2017-Nov-12 16:30N 40°38' W 074°08'0 0.0
2017-Nov-12 16:00N 40°38' W 074°08'0 0.0
2017-Nov-12 15:30N 40°38' W 074°08'0 0.0
2017-Nov-12 15:00N 40°38' W 074°08'0 0.0
2017-Nov-12 14:28N 40°38' W 074°08'0 0.0
2017-Nov-12 14:00N 40°38' W 074°08'0 0.0
2017-Nov-12 13:30N 40°38' W 074°08'0 0.0
2017-Nov-12 12:59N 40°38' W 074°08'0 0.0
2017-Nov-12 12:30N 40°38' W 074°08'0 0.0
2017-Nov-12 12:00N 40°38' W 074°08'0 0.0
2017-Nov-12 11:30N 40°38' W 074°08'0 0.0
2017-Nov-12 11:00N 40°38' W 074°08'0 0.0
2017-Nov-12 10:29N 40°38' W 074°08'0 0.0
2017-Nov-12 10:00N 40°38' W 074°08'0 0.0
2017-Nov-12 09:30N 40°38' W 074°08'0 0.0
2017-Nov-12 09:00N 40°38' W 074°08'0 0.0
2017-Nov-12 08:29N 40°38' W 074°08'0 0.0
2017-Nov-12 08:00N 40°38' W 074°08'0 0.0
2017-Nov-12 07:30N 40°38' W 074°08'0 0.0
2017-Nov-12 07:00N 40°38' W 074°08'0 0.0
2017-Nov-12 06:29N 40°38' W 074°08'0 0.0
2017-Nov-12 06:00N 40°38' W 074°08'0 0.0
2017-Nov-12 05:30N 40°38' W 074°08'0 0.0
2017-Nov-12 05:00N 40°38' W 074°08'0 0.0
2017-Nov-12 04:29N 40°38' W 074°08'0 0.0
2017-Nov-12 04:00N 40°38' W 074°08'0 0.0
2017-Nov-12 03:30N 40°38' W 074°08'0 0.0
2017-Nov-12 03:00N 40°38' W 074°08'0 0.0
2017-Nov-12 02:30N 40°38' W 074°08'0 0.0
2017-Nov-12 02:00N 40°38' W 074°08'0 0.0
2017-Nov-12 01:30N 40°38' W 074°08'0 0.0
2017-Nov-12 01:00N 40°38' W 074°08'0 0.0
2017-Nov-12 00:30N 40°38' W 074°08'0 0.0
2017-Nov-12 00:00N 40°38' W 074°08'0 0.0
2017-Nov-11 23:30N 40°38' W 074°08'0 0.0
2017-Nov-11 23:00N 40°38' W 074°08'0 0.0
2017-Nov-11 22:29N 40°38' W 074°08'0 0.0
2017-Nov-11 22:00N 40°38' W 074°08'0 0.0
2017-Nov-11 21:29N 40°38' W 074°08'0 0.8
2017-Nov-11 21:00N 40°39' W 074°08'2 4.5
2017-Nov-11 20:30N 40°41' W 074°09'0 0.4
2017-Nov-11 20:00N 40°41' W 074°08'3 5.1
2017-Nov-11 19:30N 40°38' W 074°08'0 0.0
2017-Nov-11 18:08N 40°38' W 074°08'0 0.0
2017-Nov-11 18:00N 40°38' W 074°08'0 0.0
2017-Nov-11 17:14N 40°38' W 074°08'0 0.0
2017-Nov-11 16:30N 40°38' W 074°08'0 0.0
2017-Nov-11 15:24N 40°38' W 074°08'0 0.0
2017-Nov-11 14:59N 40°38' W 074°08'0 0.0
2017-Nov-11 14:22N 40°38' W 074°08'0 0.0
2017-Nov-11 14:00N 40°38' W 074°08'0 0.0
2017-Nov-11 13:29N 40°38' W 074°08'0 0.0
2017-Nov-11 13:00N 40°38' W 074°08'0 0.0
2017-Nov-11 12:30N 40°38' W 074°08'0 0.0
2017-Nov-11 11:59N 40°38' W 074°08'0 0.0
2017-Nov-11 11:27N 40°38' W 074°08'0 0.0
2017-Nov-11 10:57N 40°38' W 074°08'0 0.0
2017-Nov-11 10:30N 40°38' W 074°08'0 0.0
2017-Nov-11 10:00N 40°38' W 074°08'0 0.0
2017-Nov-11 09:30N 40°38' W 074°08'0 0.0
2017-Nov-11 07:33N 40°38' W 074°08'0 0.1
2017-Nov-11 07:29N 40°39' W 074°08'0 0.0
2017-Nov-11 06:50N 40°39' W 074°08'0 0.0
2017-Nov-11 06:27N 40°39' W 074°08'0 0.0
2017-Nov-11 06:00N 40°39' W 074°08'2 3.8
2017-Nov-11 05:30N 40°39' W 074°05'2 3.5
2017-Nov-11 05:00N 40°39' W 074°08'1 2.8
2017-Nov-11 04:30N 40°40' W 074°08'0 0.6
2017-Nov-11 04:00N 40°40' W 074°09'0 0.1
2017-Nov-11 03:30N 40°40' W 074°09'0 0.0
2017-Nov-11 03:00N 40°40' W 074°09'1 1.9
2017-Nov-11 02:14N 40°38' W 074°08'0 0.0
2017-Nov-11 02:00N 40°38' W 074°08'0 0.0
2017-Nov-11 01:30N 40°38' W 074°08'0 0.0
2017-Nov-11 01:00N 40°38' W 074°08'2 3.4
2017-Nov-11 00:30N 40°39' W 074°06'2 4.9
2017-Nov-11 00:00N 40°39' W 074°09'2 4.4
2017-Nov-10 23:29N 40°42' W 074°08'0 0.4
2017-Nov-10 22:59N 40°42' W 074°08'0 0.1
2017-Nov-10 22:30N 40°42' W 074°08'0 0.0
2017-Nov-10 22:00N 40°42' W 074°08'3 6.0
2017-Nov-10 21:30N 40°39' W 074°10'4 8.2
2017-Nov-10 20:58N 40°35' W 074°12'0 0.0
2017-Nov-10 19:57N 40°35' W 074°13'3 7.1
2017-Nov-10 19:30N 40°38' W 074°12'3 1.0
2017-Nov-10 16:23N 40°38' W 074°08'0 0.0
2017-Nov-10 15:36N 40°38' W 074°08'0 0.0
2017-Nov-10 15:17N 40°38' W 074°08'0 0.0
2017-Nov-10 15:00N 40°38' W 074°08'0 0.0
2017-Nov-10 14:30N 40°38' W 074°08'0 0.0
2017-Nov-10 14:00N 40°38' W 074°08'0 0.0
2017-Nov-10 12:08N 40°38' W 074°08'0 0.0
2017-Nov-10 11:43N 40°38' W 074°08'1 3.5
2017-Nov-10 11:25N 40°39' W 074°09'1 3.1
2017-Nov-10 11:00N 40°40' W 074°08'1 2.1
2017-Nov-10 10:30N 40°41' W 074°09'0 0.1
2017-Nov-10 10:00N 40°41' W 074°09'3 5.2
2017-Nov-10 09:30N 40°39' W 074°08'0 0.4
2017-Nov-10 08:59N 40°38' W 074°08'0 0.0
2017-Nov-10 08:30N 40°38' W 074°08'0 0.0
2017-Nov-10 08:00N 40°38' W 074°08'0 0.0
2017-Nov-10 07:30N 40°38' W 074°08'0 0.0
2017-Nov-10 06:57N 40°38' W 074°08'0 0.0
2017-Nov-10 06:28N 40°38' W 074°08'0 0.0
2017-Nov-10 05:59N 40°38' W 074°08'0 0.0
2017-Nov-10 05:30N 40°38' W 074°08'0 0.0
2017-Nov-10 05:00N 40°38' W 074°08'0 0.0
2017-Nov-10 04:30N 40°38' W 074°08'0 0.0
2017-Nov-10 04:00N 40°38' W 074°08'0 0.0
2017-Nov-10 03:30N 40°38' W 074°08'0 0.0
2017-Nov-10 03:00N 40°38' W 074°08'0 0.0
2017-Nov-10 02:30N 40°38' W 074°08'0 0.0
2017-Nov-10 02:00N 40°38' W 074°08'0 0.0
2017-Nov-10 01:30N 40°38' W 074°08'0 0.0
2017-Nov-10 00:59N 40°38' W 074°08'0 0.0
2017-Nov-10 00:29N 40°38' W 074°08'  

Dump ship's entire track history